sensor_id;sensor_type;location;lat;lon;timestamp;P1;durP1;ratioP1;P2;durP2;ratioP2
17763;SDS011;22245;52.832;13.816;2023-03-01T00:00:38;36.47;;;11.93;;
17763;SDS011;22245;52.832;13.816;2023-03-01T00:04:00;54.63;;;16.57;;
17763;SDS011;22245;52.832;13.816;2023-03-01T00:07:21;32.20;;;10.53;;
17763;SDS011;22245;52.832;13.816;2023-03-01T00:10:43;18.27;;;7.40;;
17763;SDS011;22245;52.832;13.816;2023-03-01T00:14:05;17.73;;;8.67;;
17763;SDS011;22245;52.832;13.816;2023-03-01T00:17:29;11.87;;;6.83;;
17763;SDS011;22245;52.832;13.816;2023-03-01T00:20:50;13.90;;;8.03;;
17763;SDS011;22245;52.832;13.816;2023-03-01T00:24:12;12.97;;;5.97;;
17763;SDS011;22245;52.832;13.816;2023-03-01T00:27:34;10.63;;;4.80;;
17763;SDS011;22245;52.832;13.816;2023-03-01T00:30:56;7.13;;;4.37;;
17763;SDS011;22245;52.832;13.816;2023-03-01T00:34:25;6.30;;;3.43;;
17763;SDS011;22245;52.832;13.816;2023-03-01T00:37:47;5.43;;;3.27;;
17763;SDS011;22245;52.832;13.816;2023-03-01T00:41:14;6.47;;;3.07;;
17763;SDS011;22245;52.832;13.816;2023-03-01T00:44:37;6.10;;;2.97;;
17763;SDS011;22245;52.832;13.816;2023-03-01T00:47:59;6.13;;;3.27;;
17763;SDS011;22245;52.832;13.816;2023-03-01T00:51:23;5.70;;;3.13;;
17763;SDS011;22245;52.832;13.816;2023-03-01T00:54:46;6.70;;;3.40;;
17763;SDS011;22245;52.832;13.816;2023-03-01T00:58:08;6.80;;;3.10;;
17763;SDS011;22245;52.832;13.816;2023-03-01T01:01:30;6.20;;;3.23;;
17763;SDS011;22245;52.832;13.816;2023-03-01T01:04:52;6.33;;;3.10;;
17763;SDS011;22245;52.832;13.816;2023-03-01T01:08:15;8.00;;;4.33;;
17763;SDS011;22245;52.832;13.816;2023-03-01T01:11:37;10.47;;;4.20;;
17763;SDS011;22245;52.832;13.816;2023-03-01T01:14:59;8.53;;;3.83;;
17763;SDS011;22245;52.832;13.816;2023-03-01T01:18:21;8.87;;;4.17;;
17763;SDS011;22245;52.832;13.816;2023-03-01T01:21:43;8.17;;;4.30;;
17763;SDS011;22245;52.832;13.816;2023-03-01T01:25:06;6.50;;;3.47;;
17763;SDS011;22245;52.832;13.816;2023-03-01T01:28:29;7.13;;;4.23;;
17763;SDS011;22245;52.832;13.816;2023-03-01T01:31:51;9.37;;;3.90;;
17763;SDS011;22245;52.832;13.816;2023-03-01T01:35:13;7.00;;;3.57;;
17763;SDS011;22245;52.832;13.816;2023-03-01T01:38:35;8.57;;;3.27;;
17763;SDS011;22245;52.832;13.816;2023-03-01T01:41:59;9.60;;;3.67;;
17763;SDS011;22245;52.832;13.816;2023-03-01T01:45:26;8.73;;;3.30;;
17763;SDS011;22245;52.832;13.816;2023-03-01T01:48:52;6.80;;;3.50;;
17763;SDS011;22245;52.832;13.816;2023-03-01T01:52:16;8.40;;;3.57;;
17763;SDS011;22245;52.832;13.816;2023-03-01T01:55:42;9.30;;;3.23;;
17763;SDS011;22245;52.832;13.816;2023-03-01T01:59:08;7.23;;;3.33;;
17763;SDS011;22245;52.832;13.816;2023-03-01T02:02:30;7.23;;;3.30;;
17763;SDS011;22245;52.832;13.816;2023-03-01T02:05:53;6.33;;;3.30;;
17763;SDS011;22245;52.832;13.816;2023-03-01T02:09:20;6.37;;;3.47;;
17763;SDS011;22245;52.832;13.816;2023-03-01T02:12:43;6.80;;;3.30;;
17763;SDS011;22245;52.832;13.816;2023-03-01T02:16:09;9.80;;;3.50;;
17763;SDS011;22245;52.832;13.816;2023-03-01T02:19:37;6.80;;;3.30;;
17763;SDS011;22245;52.832;13.816;2023-03-01T02:23:09;7.07;;;3.50;;
17763;SDS011;22245;52.832;13.816;2023-03-01T02:26:33;7.47;;;3.13;;
17763;SDS011;22245;52.832;13.816;2023-03-01T02:30:02;6.23;;;2.93;;
17763;SDS011;22245;52.832;13.816;2023-03-01T02:33:24;5.30;;;3.00;;
17763;SDS011;22245;52.832;13.816;2023-03-01T02:36:47;7.33;;;3.10;;
17763;SDS011;22245;52.832;13.816;2023-03-01T02:40:13;7.03;;;3.23;;
17763;SDS011;22245;52.832;13.816;2023-03-01T02:43:38;5.93;;;2.97;;
17763;SDS011;22245;52.832;13.816;2023-03-01T02:47:02;6.20;;;3.33;;
17763;SDS011;22245;52.832;13.816;2023-03-01T02:50:35;6.57;;;3.60;;
17763;SDS011;22245;52.832;13.816;2023-03-01T02:54:16;7.63;;;3.60;;
17763;SDS011;22245;52.832;13.816;2023-03-01T02:57:45;6.63;;;3.07;;
17763;SDS011;22245;52.832;13.816;2023-03-01T03:01:10;7.03;;;3.53;;
17763;SDS011;22245;52.832;13.816;2023-03-01T03:04:35;7.83;;;3.57;;
17763;SDS011;22245;52.832;13.816;2023-03-01T03:07:58;8.13;;;3.33;;
17763;SDS011;22245;52.832;13.816;2023-03-01T03:11:23;6.33;;;3.67;;
17763;SDS011;22245;52.832;13.816;2023-03-01T03:14:45;8.50;;;3.63;;
17763;SDS011;22245;52.832;13.816;2023-03-01T03:18:07;7.53;;;3.10;;
17763;SDS011;22245;52.832;13.816;2023-03-01T03:21:32;7.87;;;3.30;;
17763;SDS011;22245;52.832;13.816;2023-03-01T03:24:54;6.67;;;3.80;;
17763;SDS011;22245;52.832;13.816;2023-03-01T03:28:15;6.60;;;3.53;;
17763;SDS011;22245;52.832;13.816;2023-03-01T03:31:38;6.20;;;3.37;;
17763;SDS011;22245;52.832;13.816;2023-03-01T03:34:59;7.40;;;3.63;;
17763;SDS011;22245;52.832;13.816;2023-03-01T03:38:23;8.33;;;3.80;;
17763;SDS011;22245;52.832;13.816;2023-03-01T03:41:45;8.33;;;3.97;;
17763;SDS011;22245;52.832;13.816;2023-03-01T03:45:07;7.53;;;3.90;;
17763;SDS011;22245;52.832;13.816;2023-03-01T03:48:29;9.17;;;3.97;;
17763;SDS011;22245;52.832;13.816;2023-03-01T03:51:51;8.27;;;4.43;;
17763;SDS011;22245;52.832;13.816;2023-03-01T03:55:14;7.10;;;4.30;;
17763;SDS011;22245;52.832;13.816;2023-03-01T03:58:39;7.40;;;4.07;;
17763;SDS011;22245;52.832;13.816;2023-03-01T04:02:01;6.67;;;3.73;;
17763;SDS011;22245;52.832;13.816;2023-03-01T04:05:23;6.50;;;3.13;;
17763;SDS011;22245;52.832;13.816;2023-03-01T04:08:45;6.70;;;3.60;;
17763;SDS011;22245;52.832;13.816;2023-03-01T04:12:08;11.87;;;3.97;;
17763;SDS011;22245;52.832;13.816;2023-03-01T04:15:30;6.37;;;3.60;;
17763;SDS011;22245;52.832;13.816;2023-03-01T04:18:52;8.57;;;3.40;;
17763;SDS011;22245;52.832;13.816;2023-03-01T04:22:14;8.90;;;3.80;;
17763;SDS011;22245;52.832;13.816;2023-03-01T04:25:38;8.97;;;3.70;;
17763;SDS011;22245;52.832;13.816;2023-03-01T04:29:02;9.33;;;3.97;;
17763;SDS011;22245;52.832;13.816;2023-03-01T04:32:24;7.27;;;3.60;;
17763;SDS011;22245;52.832;13.816;2023-03-01T04:35:46;6.03;;;3.47;;
17763;SDS011;22245;52.832;13.816;2023-03-01T04:39:09;9.43;;;4.03;;
17763;SDS011;22245;52.832;13.816;2023-03-01T04:42:33;8.23;;;3.47;;
17763;SDS011;22245;52.832;13.816;2023-03-01T04:45:56;6.70;;;3.60;;
17763;SDS011;22245;52.832;13.816;2023-03-01T04:49:22;9.70;;;4.00;;
17763;SDS011;22245;52.832;13.816;2023-03-01T04:52:44;6.50;;;3.50;;
17763;SDS011;22245;52.832;13.816;2023-03-01T04:56:06;8.60;;;4.47;;
17763;SDS011;22245;52.832;13.816;2023-03-01T04:59:28;17.30;;;7.23;;
17763;SDS011;22245;52.832;13.816;2023-03-01T05:02:52;16.37;;;6.33;;
17763;SDS011;22245;52.832;13.816;2023-03-01T05:06:15;16.63;;;6.80;;
17763;SDS011;22245;52.832;13.816;2023-03-01T05:09:37;26.33;;;10.13;;
17763;SDS011;22245;52.832;13.816;2023-03-01T05:12:59;35.77;;;12.27;;
17763;SDS011;22245;52.832;13.816;2023-03-01T05:16:21;32.23;;;11.30;;
17763;SDS011;22245;52.832;13.816;2023-03-01T05:19:45;23.60;;;9.07;;
17763;SDS011;22245;52.832;13.816;2023-03-01T05:23:06;16.57;;;7.00;;
17763;SDS011;22245;52.832;13.816;2023-03-01T05:26:28;16.20;;;7.03;;
17763;SDS011;22245;52.832;13.816;2023-03-01T05:29:50;28.97;;;9.00;;
17763;SDS011;22245;52.832;13.816;2023-03-01T05:33:12;29.60;;;8.80;;
17763;SDS011;22245;52.832;13.816;2023-03-01T05:36:35;24.60;;;7.73;;
17763;SDS011;22245;52.832;13.816;2023-03-01T05:39:58;26.67;;;7.27;;
17763;SDS011;22245;52.832;13.816;2023-03-01T05:43:20;39.57;;;11.83;;
17763;SDS011;22245;52.832;13.816;2023-03-01T05:46:42;35.03;;;10.40;;
17763;SDS011;22245;52.832;13.816;2023-03-01T05:50:05;34.73;;;11.37;;
17763;SDS011;22245;52.832;13.816;2023-03-01T05:53:29;26.67;;;9.10;;
17763;SDS011;22245;52.832;13.816;2023-03-01T05:56:51;30.60;;;10.23;;
17763;SDS011;22245;52.832;13.816;2023-03-01T06:00:13;52.60;;;16.20;;
17763;SDS011;22245;52.832;13.816;2023-03-01T06:03:37;53.70;;;17.57;;
17763;SDS011;22245;52.832;13.816;2023-03-01T06:06:59;70.67;;;21.17;;
17763;SDS011;22245;52.832;13.816;2023-03-01T06:10:22;72.40;;;18.30;;
17763;SDS011;22245;52.832;13.816;2023-03-01T06:13:44;46.43;;;13.97;;
17763;SDS011;22245;52.832;13.816;2023-03-01T06:17:07;40.30;;;11.60;;
17763;SDS011;22245;52.832;13.816;2023-03-01T06:20:29;70.37;;;16.83;;
17763;SDS011;22245;52.832;13.816;2023-03-01T06:23:51;104.87;;;25.07;;
17763;SDS011;22245;52.832;13.816;2023-03-01T06:27:14;46.27;;;14.83;;
17763;SDS011;22245;52.832;13.816;2023-03-01T06:30:36;23.63;;;10.30;;
17763;SDS011;22245;52.832;13.816;2023-03-01T06:33:58;17.47;;;7.93;;
17763;SDS011;22245;52.832;13.816;2023-03-01T06:37:19;12.23;;;5.07;;
17763;SDS011;22245;52.832;13.816;2023-03-01T06:40:41;8.70;;;4.47;;
17763;SDS011;22245;52.832;13.816;2023-03-01T06:44:04;8.90;;;3.97;;
17763;SDS011;22245;52.832;13.816;2023-03-01T06:47:25;12.17;;;6.27;;
17763;SDS011;22245;52.832;13.816;2023-03-01T06:50:47;13.13;;;5.20;;
17763;SDS011;22245;52.832;13.816;2023-03-01T06:54:08;6.07;;;3.77;;
17763;SDS011;22245;52.832;13.816;2023-03-01T06:57:30;11.83;;;6.17;;
17763;SDS011;22245;52.832;13.816;2023-03-01T07:00:53;11.77;;;6.07;;
17763;SDS011;22245;52.832;13.816;2023-03-01T07:04:15;14.43;;;8.03;;
17763;SDS011;22245;52.832;13.816;2023-03-01T07:07:36;15.43;;;7.00;;
17763;SDS011;22245;52.832;13.816;2023-03-01T07:10:58;9.63;;;4.03;;
17763;SDS011;22245;52.832;13.816;2023-03-01T07:14:22;9.10;;;4.20;;
17763;SDS011;22245;52.832;13.816;2023-03-01T07:17:47;71.77;;;11.03;;
17763;SDS011;22245;52.832;13.816;2023-03-01T07:21:11;14.40;;;6.27;;
17763;SDS011;22245;52.832;13.816;2023-03-01T07:24:34;16.30;;;5.13;;
17763;SDS011;22245;52.832;13.816;2023-03-01T07:27:56;29.13;;;11.70;;
17763;SDS011;22245;52.832;13.816;2023-03-01T07:31:18;37.03;;;14.73;;
17763;SDS011;22245;52.832;13.816;2023-03-01T07:34:41;20.63;;;8.77;;
17763;SDS011;22245;52.832;13.816;2023-03-01T07:38:03;18.87;;;7.67;;
17763;SDS011;22245;52.832;13.816;2023-03-01T07:41:25;13.50;;;5.93;;
17763;SDS011;22245;52.832;13.816;2023-03-01T07:44:47;15.90;;;6.20;;
17763;SDS011;22245;52.832;13.816;2023-03-01T07:48:09;13.73;;;6.17;;
17763;SDS011;22245;52.832;13.816;2023-03-01T07:51:32;13.47;;;7.47;;
17763;SDS011;22245;52.832;13.816;2023-03-01T07:54:53;18.33;;;8.80;;
17763;SDS011;22245;52.832;13.816;2023-03-01T07:58:15;13.13;;;7.47;;
17763;SDS011;22245;52.832;13.816;2023-03-01T08:01:36;10.40;;;6.60;;
17763;SDS011;22245;52.832;13.816;2023-03-01T08:04:58;11.13;;;5.73;;
17763;SDS011;22245;52.832;13.816;2023-03-01T08:08:21;10.63;;;5.33;;
17763;SDS011;22245;52.832;13.816;2023-03-01T08:11:43;12.13;;;6.40;;
17763;SDS011;22245;52.832;13.816;2023-03-01T08:15:05;16.10;;;6.30;;
17763;SDS011;22245;52.832;13.816;2023-03-01T08:18:27;16.30;;;7.40;;
17763;SDS011;22245;52.832;13.816;2023-03-01T08:21:49;14.77;;;7.30;;
17763;SDS011;22245;52.832;13.816;2023-03-01T08:25:12;13.83;;;7.60;;
17763;SDS011;22245;52.832;13.816;2023-03-01T08:28:34;12.60;;;7.13;;
17763;SDS011;22245;52.832;13.816;2023-03-01T08:31:56;10.70;;;6.23;;
17763;SDS011;22245;52.832;13.816;2023-03-01T08:35:18;12.20;;;6.37;;
17763;SDS011;22245;52.832;13.816;2023-03-01T08:38:40;13.47;;;6.00;;
17763;SDS011;22245;52.832;13.816;2023-03-01T08:42:04;11.23;;;6.10;;
17763;SDS011;22245;52.832;13.816;2023-03-01T08:45:26;9.30;;;5.77;;
17763;SDS011;22245;52.832;13.816;2023-03-01T08:48:48;12.33;;;5.50;;
17763;SDS011;22245;52.832;13.816;2023-03-01T08:52:10;9.47;;;5.40;;
17763;SDS011;22245;52.832;13.816;2023-03-01T08:55:32;10.13;;;5.70;;
17763;SDS011;22245;52.832;13.816;2023-03-01T08:58:55;10.37;;;5.63;;
17763;SDS011;22245;52.832;13.816;2023-03-01T09:02:17;9.97;;;5.40;;
17763;SDS011;22245;52.832;13.816;2023-03-01T09:05:40;7.37;;;4.70;;
17763;SDS011;22245;52.832;13.816;2023-03-01T09:09:03;9.07;;;5.27;;
17763;SDS011;22245;52.832;13.816;2023-03-01T09:12:26;9.23;;;4.93;;
17763;SDS011;22245;52.832;13.816;2023-03-01T09:15:49;9.27;;;4.97;;
17763;SDS011;22245;52.832;13.816;2023-03-01T09:19:11;9.57;;;5.00;;
17763;SDS011;22245;52.832;13.816;2023-03-01T09:22:33;11.87;;;4.93;;
17763;SDS011;22245;52.832;13.816;2023-03-01T09:25:55;11.33;;;4.53;;
17763;SDS011;22245;52.832;13.816;2023-03-01T09:29:17;9.20;;;5.20;;
17763;SDS011;22245;52.832;13.816;2023-03-01T09:32:39;10.37;;;4.90;;
17763;SDS011;22245;52.832;13.816;2023-03-01T09:36:03;9.43;;;4.90;;
17763;SDS011;22245;52.832;13.816;2023-03-01T09:39:27;9.23;;;4.60;;
17763;SDS011;22245;52.832;13.816;2023-03-01T09:42:51;9.00;;;4.97;;
17763;SDS011;22245;52.832;13.816;2023-03-01T09:46:16;8.90;;;4.83;;
17763;SDS011;22245;52.832;13.816;2023-03-01T09:49:40;9.67;;;3.60;;
17763;SDS011;22245;52.832;13.816;2023-03-01T09:53:09;7.13;;;3.80;;
17763;SDS011;22245;52.832;13.816;2023-03-01T09:56:36;9.80;;;5.17;;
17763;SDS011;22245;52.832;13.816;2023-03-01T10:00:03;12.53;;;5.10;;
17763;SDS011;22245;52.832;13.816;2023-03-01T10:03:39;9.80;;;4.87;;
17763;SDS011;22245;52.832;13.816;2023-03-01T10:07:12;11.67;;;5.07;;
17763;SDS011;22245;52.832;13.816;2023-03-01T10:10:46;9.80;;;4.70;;
17763;SDS011;22245;52.832;13.816;2023-03-01T10:14:13;8.03;;;4.60;;
17763;SDS011;22245;52.832;13.816;2023-03-01T10:17:46;11.17;;;5.20;;
17763;SDS011;22245;52.832;13.816;2023-03-01T10:21:14;8.97;;;5.07;;
17763;SDS011;22245;52.832;13.816;2023-03-01T10:24:40;8.37;;;4.40;;
17763;SDS011;22245;52.832;13.816;2023-03-01T10:28:02;8.97;;;5.00;;
17763;SDS011;22245;52.832;13.816;2023-03-01T10:31:35;7.17;;;4.30;;
17763;SDS011;22245;52.832;13.816;2023-03-01T10:35:01;10.80;;;5.03;;
17763;SDS011;22245;52.832;13.816;2023-03-01T10:38:47;8.47;;;4.50;;
17763;SDS011;22245;52.832;13.816;2023-03-01T10:42:20;9.13;;;5.20;;
17763;SDS011;22245;52.832;13.816;2023-03-01T10:45:47;14.67;;;5.93;;
17763;SDS011;22245;52.832;13.816;2023-03-01T10:49:14;11.77;;;5.27;;
17763;SDS011;22245;52.832;13.816;2023-03-01T10:52:37;10.37;;;5.80;;
17763;SDS011;22245;52.832;13.816;2023-03-01T10:56:03;11.40;;;5.33;;
17763;SDS011;22245;52.832;13.816;2023-03-01T10:59:29;11.30;;;5.40;;
17763;SDS011;22245;52.832;13.816;2023-03-01T11:03:02;12.10;;;5.73;;
17763;SDS011;22245;52.832;13.816;2023-03-01T11:06:32;12.03;;;6.47;;
17763;SDS011;22245;52.832;13.816;2023-03-01T11:09:54;11.70;;;5.50;;
17763;SDS011;22245;52.832;13.816;2023-03-01T11:13:17;18.73;;;8.27;;
17763;SDS011;22245;52.832;13.816;2023-03-01T11:16:42;12.63;;;6.33;;
17763;SDS011;22245;52.832;13.816;2023-03-01T11:20:13;13.97;;;6.10;;
17763;SDS011;22245;52.832;13.816;2023-03-01T11:23:43;13.93;;;7.20;;
17763;SDS011;22245;52.832;13.816;2023-03-01T11:27:11;12.20;;;6.40;;
17763;SDS011;22245;52.832;13.816;2023-03-01T11:30:39;10.30;;;5.47;;
17763;SDS011;22245;52.832;13.816;2023-03-01T11:34:19;13.80;;;6.20;;
17763;SDS011;22245;52.832;13.816;2023-03-01T11:37:48;11.63;;;5.90;;
17763;SDS011;22245;52.832;13.816;2023-03-01T11:41:21;14.57;;;6.53;;
17763;SDS011;22245;52.832;13.816;2023-03-01T11:44:48;12.23;;;5.80;;
17763;SDS011;22245;52.832;13.816;2023-03-01T11:48:19;11.43;;;6.23;;
17763;SDS011;22245;52.832;13.816;2023-03-01T11:52:12;12.17;;;6.17;;
17763;SDS011;22245;52.832;13.816;2023-03-01T11:55:46;9.93;;;6.07;;
17763;SDS011;22245;52.832;13.816;2023-03-01T11:59:29;14.20;;;6.10;;
17763;SDS011;22245;52.832;13.816;2023-03-01T12:06:50;12.70;;;5.10;;
17763;SDS011;22245;52.832;13.816;2023-03-01T12:10:22;9.67;;;4.67;;
17763;SDS011;22245;52.832;13.816;2023-03-01T12:14:06;7.93;;;4.30;;
17763;SDS011;22245;52.832;13.816;2023-03-01T12:17:49;8.87;;;4.23;;
17763;SDS011;22245;52.832;13.816;2023-03-01T12:21:23;5.97;;;3.30;;
17763;SDS011;22245;52.832;13.816;2023-03-01T12:25:14;5.63;;;3.03;;
17763;SDS011;22245;52.832;13.816;2023-03-01T12:28:46;4.37;;;2.80;;
17763;SDS011;22245;52.832;13.816;2023-03-01T12:32:34;6.20;;;2.97;;
17763;SDS011;22245;52.832;13.816;2023-03-01T12:39:52;9.47;;;3.40;;
17763;SDS011;22245;52.832;13.816;2023-03-01T12:43:28;6.57;;;3.67;;
17763;SDS011;22245;52.832;13.816;2023-03-01T12:47:11;6.53;;;3.10;;
17763;SDS011;22245;52.832;13.816;2023-03-01T12:50:46;7.50;;;3.13;;
17763;SDS011;22245;52.832;13.816;2023-03-01T12:54:11;7.40;;;3.60;;
17763;SDS011;22245;52.832;13.816;2023-03-01T12:57:37;5.53;;;3.20;;
17763;SDS011;22245;52.832;13.816;2023-03-01T13:01:05;9.80;;;3.37;;
17763;SDS011;22245;52.832;13.816;2023-03-01T13:04:43;3.63;;;2.30;;
17763;SDS011;22245;52.832;13.816;2023-03-01T13:08:15;5.43;;;2.33;;
17763;SDS011;22245;52.832;13.816;2023-03-01T13:11:43;4.57;;;2.50;;
17763;SDS011;22245;52.832;13.816;2023-03-01T13:15:13;5.83;;;2.50;;
17763;SDS011;22245;52.832;13.816;2023-03-01T13:18:46;4.73;;;2.60;;
17763;SDS011;22245;52.832;13.816;2023-03-01T13:26:04;4.03;;;2.23;;
17763;SDS011;22245;52.832;13.816;2023-03-01T13:29:42;5.10;;;2.60;;
17763;SDS011;22245;52.832;13.816;2023-03-01T13:37:08;5.73;;;2.70;;
17763;SDS011;22245;52.832;13.816;2023-03-01T13:44:30;4.57;;;2.40;;
17763;SDS011;22245;52.832;13.816;2023-03-01T13:47:56;4.40;;;2.10;;
17763;SDS011;22245;52.832;13.816;2023-03-01T13:51:21;3.87;;;2.00;;
17763;SDS011;22245;52.832;13.816;2023-03-01T13:54:46;4.43;;;2.00;;
17763;SDS011;22245;52.832;13.816;2023-03-01T13:58:16;3.30;;;2.10;;
17763;SDS011;22245;52.832;13.816;2023-03-01T14:01:43;3.90;;;2.03;;
17763;SDS011;22245;52.832;13.816;2023-03-01T14:05:05;2.97;;;1.63;;
17763;SDS011;22245;52.832;13.816;2023-03-01T14:08:33;4.03;;;2.03;;
17763;SDS011;22245;52.832;13.816;2023-03-01T14:15:47;2.93;;;2.03;;
17763;SDS011;22245;52.832;13.816;2023-03-01T14:19:18;2.67;;;1.80;;
17763;SDS011;22245;52.832;13.816;2023-03-01T14:22:53;3.77;;;1.77;;
17763;SDS011;22245;52.832;13.816;2023-03-01T14:26:19;4.60;;;1.80;;
17763;SDS011;22245;52.832;13.816;2023-03-01T14:29:42;3.03;;;2.17;;
17763;SDS011;22245;52.832;13.816;2023-03-01T14:33:16;2.40;;;1.90;;
17763;SDS011;22245;52.832;13.816;2023-03-01T14:36:40;2.80;;;1.80;;
17763;SDS011;22245;52.832;13.816;2023-03-01T14:40:03;4.03;;;2.07;;
17763;SDS011;22245;52.832;13.816;2023-03-01T14:43:26;3.43;;;1.80;;
17763;SDS011;22245;52.832;13.816;2023-03-01T14:46:51;3.33;;;1.80;;
17763;SDS011;22245;52.832;13.816;2023-03-01T14:50:18;2.80;;;1.70;;
17763;SDS011;22245;52.832;13.816;2023-03-01T14:53:44;2.63;;;1.63;;
17763;SDS011;22245;52.832;13.816;2023-03-01T14:57:12;2.57;;;1.50;;
17763;SDS011;22245;52.832;13.816;2023-03-01T15:00:36;3.50;;;1.53;;
17763;SDS011;22245;52.832;13.816;2023-03-01T15:03:58;2.80;;;1.53;;
17763;SDS011;22245;52.832;13.816;2023-03-01T15:07:24;2.43;;;1.53;;
17763;SDS011;22245;52.832;13.816;2023-03-01T15:10:58;2.73;;;1.63;;
17763;SDS011;22245;52.832;13.816;2023-03-01T15:14:26;2.20;;;1.70;;
17763;SDS011;22245;52.832;13.816;2023-03-01T15:18:14;2.37;;;1.50;;
17763;SDS011;22245;52.832;13.816;2023-03-01T15:21:39;3.70;;;1.50;;
17763;SDS011;22245;52.832;13.816;2023-03-01T15:25:13;4.00;;;1.47;;
17763;SDS011;22245;52.832;13.816;2023-03-01T15:28:37;3.13;;;1.70;;
17763;SDS011;22245;52.832;13.816;2023-03-01T15:32:04;4.03;;;1.57;;
17763;SDS011;22245;52.832;13.816;2023-03-01T15:35:33;5.07;;;1.70;;
17763;SDS011;22245;52.832;13.816;2023-03-01T15:39:02;2.70;;;1.63;;
17763;SDS011;22245;52.832;13.816;2023-03-01T15:42:37;3.40;;;2.40;;
17763;SDS011;22245;52.832;13.816;2023-03-01T15:45:59;9.30;;;2.97;;
17763;SDS011;22245;52.832;13.816;2023-03-01T15:49:25;8.37;;;3.63;;
17763;SDS011;22245;52.832;13.816;2023-03-01T15:52:58;5.87;;;3.00;;
17763;SDS011;22245;52.832;13.816;2023-03-01T15:56:21;7.70;;;3.37;;
17763;SDS011;22245;52.832;13.816;2023-03-01T15:59:44;5.30;;;3.00;;
17763;SDS011;22245;52.832;13.816;2023-03-01T16:03:07;6.83;;;3.30;;
17763;SDS011;22245;52.832;13.816;2023-03-01T16:06:31;9.37;;;3.87;;
17763;SDS011;22245;52.832;13.816;2023-03-01T16:09:53;7.70;;;3.43;;
17763;SDS011;22245;52.832;13.816;2023-03-01T16:13:15;6.30;;;3.40;;
17763;SDS011;22245;52.832;13.816;2023-03-01T16:16:39;7.90;;;4.37;;
17763;SDS011;22245;52.832;13.816;2023-03-01T16:20:00;8.63;;;4.47;;
17763;SDS011;22245;52.832;13.816;2023-03-01T16:23:25;14.97;;;7.07;;
17763;SDS011;22245;52.832;13.816;2023-03-01T16:26:47;16.37;;;7.53;;
17763;SDS011;22245;52.832;13.816;2023-03-01T16:30:09;11.27;;;6.00;;
17763;SDS011;22245;52.832;13.816;2023-03-01T16:33:34;12.17;;;6.30;;
17763;SDS011;22245;52.832;13.816;2023-03-01T16:36:55;15.10;;;7.03;;
17763;SDS011;22245;52.832;13.816;2023-03-01T16:40:18;15.13;;;7.70;;
17763;SDS011;22245;52.832;13.816;2023-03-01T16:43:42;15.37;;;9.60;;
17763;SDS011;22245;52.832;13.816;2023-03-01T16:47:07;16.37;;;9.53;;
17763;SDS011;22245;52.832;13.816;2023-03-01T16:50:30;17.70;;;8.83;;
17763;SDS011;22245;52.832;13.816;2023-03-01T16:53:51;20.03;;;9.20;;
17763;SDS011;22245;52.832;13.816;2023-03-01T16:57:14;14.93;;;7.13;;
17763;SDS011;22245;52.832;13.816;2023-03-01T17:00:36;12.33;;;6.83;;
17763;SDS011;22245;52.832;13.816;2023-03-01T17:03:58;11.70;;;6.00;;
17763;SDS011;22245;52.832;13.816;2023-03-01T17:07:22;15.33;;;7.30;;
17763;SDS011;22245;52.832;13.816;2023-03-01T17:10:43;8.53;;;4.70;;
17763;SDS011;22245;52.832;13.816;2023-03-01T17:14:06;8.43;;;5.00;;
17763;SDS011;22245;52.832;13.816;2023-03-01T17:17:28;11.47;;;4.90;;
17763;SDS011;22245;52.832;13.816;2023-03-01T17:20:50;9.77;;;4.17;;
17763;SDS011;22245;52.832;13.816;2023-03-01T17:24:13;6.23;;;3.47;;
17763;SDS011;22245;52.832;13.816;2023-03-01T17:27:35;6.43;;;2.90;;
17763;SDS011;22245;52.832;13.816;2023-03-01T17:30:58;5.77;;;2.83;;
17763;SDS011;22245;52.832;13.816;2023-03-01T17:34:20;3.90;;;2.57;;
17763;SDS011;22245;52.832;13.816;2023-03-01T17:37:41;7.13;;;2.80;;
17763;SDS011;22245;52.832;13.816;2023-03-01T17:41:07;7.67;;;2.90;;
17763;SDS011;22245;52.832;13.816;2023-03-01T17:44:31;8.13;;;2.90;;
17763;SDS011;22245;52.832;13.816;2023-03-01T17:47:54;6.23;;;2.63;;
17763;SDS011;22245;52.832;13.816;2023-03-01T17:51:16;6.10;;;2.83;;
17763;SDS011;22245;52.832;13.816;2023-03-01T17:54:38;6.10;;;2.23;;
17763;SDS011;22245;52.832;13.816;2023-03-01T17:58:01;6.03;;;3.13;;
17763;SDS011;22245;52.832;13.816;2023-03-01T18:01:23;4.53;;;2.20;;
17763;SDS011;22245;52.832;13.816;2023-03-01T18:04:45;4.13;;;2.20;;
17763;SDS011;22245;52.832;13.816;2023-03-01T18:08:07;4.20;;;2.20;;
17763;SDS011;22245;52.832;13.816;2023-03-01T18:11:29;4.60;;;2.50;;
17763;SDS011;22245;52.832;13.816;2023-03-01T18:14:55;6.23;;;3.80;;
17763;SDS011;22245;52.832;13.816;2023-03-01T18:18:17;7.63;;;3.77;;
17763;SDS011;22245;52.832;13.816;2023-03-01T18:21:38;6.87;;;3.30;;
17763;SDS011;22245;52.832;13.816;2023-03-01T18:25:00;5.60;;;2.23;;
17763;SDS011;22245;52.832;13.816;2023-03-01T18:28:22;5.13;;;2.00;;
17763;SDS011;22245;52.832;13.816;2023-03-01T18:31:47;3.10;;;1.60;;
17763;SDS011;22245;52.832;13.816;2023-03-01T18:35:09;3.17;;;1.40;;
17763;SDS011;22245;52.832;13.816;2023-03-01T18:38:31;4.50;;;2.00;;
17763;SDS011;22245;52.832;13.816;2023-03-01T18:41:53;3.03;;;1.60;;
17763;SDS011;22245;52.832;13.816;2023-03-01T18:45:15;4.53;;;1.60;;
17763;SDS011;22245;52.832;13.816;2023-03-01T18:48:39;3.50;;;1.73;;
17763;SDS011;22245;52.832;13.816;2023-03-01T18:52:00;3.07;;;1.63;;
17763;SDS011;22245;52.832;13.816;2023-03-01T18:55:23;3.97;;;1.87;;
17763;SDS011;22245;52.832;13.816;2023-03-01T18:58:45;6.13;;;2.10;;
17763;SDS011;22245;52.832;13.816;2023-03-01T19:02:07;6.23;;;3.33;;
17763;SDS011;22245;52.832;13.816;2023-03-01T19:05:32;8.17;;;3.87;;
17763;SDS011;22245;52.832;13.816;2023-03-01T19:08:54;4.23;;;2.80;;
17763;SDS011;22245;52.832;13.816;2023-03-01T19:12:16;5.50;;;2.70;;
17763;SDS011;22245;52.832;13.816;2023-03-01T19:15:38;5.13;;;2.63;;
17763;SDS011;22245;52.832;13.816;2023-03-01T19:19:00;5.90;;;2.90;;
17763;SDS011;22245;52.832;13.816;2023-03-01T19:22:25;7.23;;;3.30;;
17763;SDS011;22245;52.832;13.816;2023-03-01T19:25:47;5.97;;;3.30;;
17763;SDS011;22245;52.832;13.816;2023-03-01T19:29:09;6.80;;;2.27;;
17763;SDS011;22245;52.832;13.816;2023-03-01T19:32:31;6.17;;;2.07;;
17763;SDS011;22245;52.832;13.816;2023-03-01T19:35:53;2.97;;;2.10;;
17763;SDS011;22245;52.832;13.816;2023-03-01T19:39:17;3.30;;;2.13;;
17763;SDS011;22245;52.832;13.816;2023-03-01T19:42:39;2.80;;;2.17;;
17763;SDS011;22245;52.832;13.816;2023-03-01T19:46:02;2.47;;;1.70;;
17763;SDS011;22245;52.832;13.816;2023-03-01T19:49:24;5.07;;;1.90;;
17763;SDS011;22245;52.832;13.816;2023-03-01T19:52:48;3.43;;;1.43;;
17763;SDS011;22245;52.832;13.816;2023-03-01T19:56:12;4.03;;;1.83;;
17763;SDS011;22245;52.832;13.816;2023-03-01T19:59:34;4.50;;;2.10;;
17763;SDS011;22245;52.832;13.816;2023-03-01T20:02:56;2.00;;;1.50;;
17763;SDS011;22245;52.832;13.816;2023-03-01T20:06:18;4.00;;;1.60;;
17763;SDS011;22245;52.832;13.816;2023-03-01T20:09:40;4.07;;;1.90;;
17763;SDS011;22245;52.832;13.816;2023-03-01T20:13:04;3.77;;;2.50;;
17763;SDS011;22245;52.832;13.816;2023-03-01T20:16:26;8.63;;;4.30;;
17763;SDS011;22245;52.832;13.816;2023-03-01T20:19:48;6.47;;;3.20;;
17763;SDS011;22245;52.832;13.816;2023-03-01T20:23:09;5.27;;;2.80;;
17763;SDS011;22245;52.832;13.816;2023-03-01T20:26:31;5.43;;;2.40;;
17763;SDS011;22245;52.832;13.816;2023-03-01T20:29:55;5.50;;;2.63;;